sensor_id;sensor_type;location;lat;lon;timestamp;temperature;humidity
69677;DHT22;56914;51.058;9.326;2023-04-03T00:01:02;8.40;52.00
69677;DHT22;56914;51.058;9.326;2023-04-03T00:02:04;8.40;51.60
69677;DHT22;56914;51.058;9.326;2023-04-03T00:03:07;8.40;51.50
69677;DHT22;56914;51.058;9.326;2023-04-03T00:04:11;8.40;50.90
69677;DHT22;56914;51.058;9.326;2023-04-03T00:05:15;8.30;50.80
69677;DHT22;56914;51.058;9.326;2023-04-03T00:06:17;8.30;51.20
69677;DHT22;56914;51.058;9.326;2023-04-03T00:07:20;8.40;51.30
69677;DHT22;56914;51.058;9.326;2023-04-03T00:08:22;8.40;51.60
69677;DHT22;56914;51.058;9.326;2023-04-03T00:09:25;8.40;52.10
69677;DHT22;56914;51.058;9.326;2023-04-03T00:10:28;8.40;51.90
69677;DHT22;56914;51.058;9.326;2023-04-03T00:11:31;8.40;51.40
69677;DHT22;56914;51.058;9.326;2023-04-03T00:12:33;8.30;51.60
69677;DHT22;56914;51.058;9.326;2023-04-03T00:13:37;8.20;51.70
69677;DHT22;56914;51.058;9.326;2023-04-03T00:14:40;8.30;51.90
69677;DHT22;56914;51.058;9.326;2023-04-03T00:15:43;8.30;52.20
69677;DHT22;56914;51.058;9.326;2023-04-03T00:16:45;8.30;52.40
69677;DHT22;56914;51.058;9.326;2023-04-03T00:17:48;8.30;52.30
69677;DHT22;56914;51.058;9.326;2023-04-03T00:18:51;8.30;52.30
69677;DHT22;56914;51.058;9.326;2023-04-03T00:19:55;8.20;52.30
69677;DHT22;56914;51.058;9.326;2023-04-03T00:20:58;8.10;52.60
69677;DHT22;56914;51.058;9.326;2023-04-03T00:22:01;8.10;52.60
69677;DHT22;56914;51.058;9.326;2023-04-03T00:23:03;8.00;52.80
69677;DHT22;56914;51.058;9.326;2023-04-03T00:24:07;8.00;53.50
69677;DHT22;56914;51.058;9.326;2023-04-03T00:25:09;8.00;53.40
69677;DHT22;56914;51.058;9.326;2023-04-03T00:26:12;7.90;53.10
69677;DHT22;56914;51.058;9.326;2023-04-03T00:27:14;7.90;52.60
69677;DHT22;56914;51.058;9.326;2023-04-03T00:28:19;7.90;52.40
69677;DHT22;56914;51.058;9.326;2023-04-03T00:29:21;7.90;52.30
69677;DHT22;56914;51.058;9.326;2023-04-03T00:30:25;7.80;52.40
69677;DHT22;56914;51.058;9.326;2023-04-03T00:31:27;7.90;52.60
69677;DHT22;56914;51.058;9.326;2023-04-03T00:32:30;7.80;52.70
69677;DHT22;56914;51.058;9.326;2023-04-03T00:33:32;7.80;52.90
69677;DHT22;56914;51.058;9.326;2023-04-03T00:34:36;7.70;52.80
69677;DHT22;56914;51.058;9.326;2023-04-03T00:35:39;7.70;52.80
69677;DHT22;56914;51.058;9.326;2023-04-03T00:36:43;7.70;52.80
69677;DHT22;56914;51.058;9.326;2023-04-03T00:37:46;7.70;53.10
69677;DHT22;56914;51.058;9.326;2023-04-03T00:38:49;7.70;52.80
69677;DHT22;56914;51.058;9.326;2023-04-03T00:39:51;7.70;53.00
69677;DHT22;56914;51.058;9.326;2023-04-03T00:40:54;7.70;53.30
69677;DHT22;56914;51.058;9.326;2023-04-03T00:41:56;7.70;53.30
69677;DHT22;56914;51.058;9.326;2023-04-03T00:43:00;7.70;53.20
69677;DHT22;56914;51.058;9.326;2023-04-03T00:44:20;7.80;53.40
69677;DHT22;56914;51.058;9.326;2023-04-03T00:45:28;7.80;53.40
69677;DHT22;56914;51.058;9.326;2023-04-03T00:46:30;7.80;52.70
69677;DHT22;56914;51.058;9.326;2023-04-03T00:47:34;7.80;53.00
69677;DHT22;56914;51.058;9.326;2023-04-03T00:48:40;7.70;53.20
69677;DHT22;56914;51.058;9.326;2023-04-03T00:49:45;7.70;53.10
69677;DHT22;56914;51.058;9.326;2023-04-03T00:50:50;7.70;53.90
69677;DHT22;56914;51.058;9.326;2023-04-03T00:51:56;7.70;53.10
69677;DHT22;56914;51.058;9.326;2023-04-03T00:52:59;7.60;53.40
69677;DHT22;56914;51.058;9.326;2023-04-03T00:54:05;7.60;53.40
69677;DHT22;56914;51.058;9.326;2023-04-03T00:55:09;7.60;53.60
69677;DHT22;56914;51.058;9.326;2023-04-03T00:56:16;7.60;53.70
69677;DHT22;56914;51.058;9.326;2023-04-03T00:57:22;7.60;53.80
69677;DHT22;56914;51.058;9.326;2023-04-03T00:58:31;7.60;53.80
69677;DHT22;56914;51.058;9.326;2023-04-03T00:59:42;7.60;53.90
69677;DHT22;56914;51.058;9.326;2023-04-03T01:00:50;7.60;54.00
69677;DHT22;56914;51.058;9.326;2023-04-03T01:01:58;7.60;54.00
69677;DHT22;56914;51.058;9.326;2023-04-03T01:03:01;7.60;53.90
69677;DHT22;56914;51.058;9.326;2023-04-03T01:04:05;7.60;53.50
69677;DHT22;56914;51.058;9.326;2023-04-03T01:05:09;7.50;53.60
69677;DHT22;56914;51.058;9.326;2023-04-03T01:06:17;7.50;53.80
69677;DHT22;56914;51.058;9.326;2023-04-03T01:07:27;7.50;54.00
69677;DHT22;56914;51.058;9.326;2023-04-03T01:08:32;7.50;54.00
69677;DHT22;56914;51.058;9.326;2023-04-03T01:09:35;7.50;53.90
69677;DHT22;56914;51.058;9.326;2023-04-03T01:10:38;7.40;54.00
69677;DHT22;56914;51.058;9.326;2023-04-03T01:11:40;7.40;54.00
69677;DHT22;56914;51.058;9.326;2023-04-03T01:12:45;7.40;54.00
69677;DHT22;56914;51.058;9.326;2023-04-03T01:13:48;7.40;54.00
69677;DHT22;56914;51.058;9.326;2023-04-03T01:14:54;7.40;53.90
69677;DHT22;56914;51.058;9.326;2023-04-03T01:16:00;7.40;53.80
69677;DHT22;56914;51.058;9.326;2023-04-03T01:17:29;7.40;53.60
69677;DHT22;56914;51.058;9.326;2023-04-03T01:18:32;7.30;53.90
69677;DHT22;56914;51.058;9.326;2023-04-03T01:19:44;7.30;53.80
69677;DHT22;56914;51.058;9.326;2023-04-03T01:22:38;7.20;54.30
69677;DHT22;56914;51.058;9.326;2023-04-03T01:24:00;7.20;54.40
69677;DHT22;56914;51.058;9.326;2023-04-03T01:25:06;7.20;54.40
69677;DHT22;56914;51.058;9.326;2023-04-03T01:26:08;7.30;55.10
69677;DHT22;56914;51.058;9.326;2023-04-03T01:27:13;7.30;54.40
69677;DHT22;56914;51.058;9.326;2023-04-03T01:28:19;7.30;54.40
69677;DHT22;56914;51.058;9.326;2023-04-03T01:29:22;7.30;54.30
69677;DHT22;56914;51.058;9.326;2023-04-03T01:30:32;7.30;54.30
69677;DHT22;56914;51.058;9.326;2023-04-03T01:31:59;7.30;54.30
69677;DHT22;56914;51.058;9.326;2023-04-03T01:33:02;7.30;54.30
69677;DHT22;56914;51.058;9.326;2023-04-03T01:34:05;7.30;54.20
69677;DHT22;56914;51.058;9.326;2023-04-03T01:35:09;7.30;54.20
69677;DHT22;56914;51.058;9.326;2023-04-03T01:36:15;7.30;54.20
69677;DHT22;56914;51.058;9.326;2023-04-03T01:37:19;7.30;54.20
69677;DHT22;56914;51.058;9.326;2023-04-03T01:38:21;7.30;54.20
69677;DHT22;56914;51.058;9.326;2023-04-03T01:39:24;7.30;54.20
69677;DHT22;56914;51.058;9.326;2023-04-03T01:40:27;7.30;54.30
69677;DHT22;56914;51.058;9.326;2023-04-03T01:41:30;7.30;54.40
69677;DHT22;56914;51.058;9.326;2023-04-03T01:42:32;7.20;54.30
69677;DHT22;56914;51.058;9.326;2023-04-03T01:43:35;7.20;54.80
69677;DHT22;56914;51.058;9.326;2023-04-03T01:44:38;7.20;54.80
69677;DHT22;56914;51.058;9.326;2023-04-03T01:45:41;7.10;54.60
69677;DHT22;56914;51.058;9.326;2023-04-03T01:46:44;7.10;54.60
69677;DHT22;56914;51.058;9.326;2023-04-03T01:47:48;7.10;54.70
69677;DHT22;56914;51.058;9.326;2023-04-03T01:48:50;7.10;54.60
69677;DHT22;56914;51.058;9.326;2023-04-03T01:49:53;7.10;54.60
69677;DHT22;56914;51.058;9.326;2023-04-03T01:50:56;7.10;54.60
69677;DHT22;56914;51.058;9.326;2023-04-03T01:51:59;7.00;54.80
69677;DHT22;56914;51.058;9.326;2023-04-03T01:53:01;7.00;54.80
69677;DHT22;56914;51.058;9.326;2023-04-03T01:54:04;7.00;54.90
69677;DHT22;56914;51.058;9.326;2023-04-03T01:55:07;7.00;55.10
69677;DHT22;56914;51.058;9.326;2023-04-03T01:56:11;6.90;55.00
69677;DHT22;56914;51.058;9.326;2023-04-03T01:57:13;6.90;55.00
69677;DHT22;56914;51.058;9.326;2023-04-03T01:58:17;6.90;55.00
69677;DHT22;56914;51.058;9.326;2023-04-03T01:59:19;6.90;55.00
69677;DHT22;56914;51.058;9.326;2023-04-03T02:00:22;6.90;55.00
69677;DHT22;56914;51.058;9.326;2023-04-03T02:01:25;6.80;55.00
69677;DHT22;56914;51.058;9.326;2023-04-03T02:02:28;6.80;55.20
69677;DHT22;56914;51.058;9.326;2023-04-03T02:03:32;6.70;55.70
69677;DHT22;56914;51.058;9.326;2023-04-03T02:04:35;6.70;55.60
69677;DHT22;56914;51.058;9.326;2023-04-03T02:05:38;6.70;55.90
69677;DHT22;56914;51.058;9.326;2023-04-03T02:06:41;6.60;55.80
69677;DHT22;56914;51.058;9.326;2023-04-03T02:07:43;6.60;55.80
69677;DHT22;56914;51.058;9.326;2023-04-03T02:08:47;6.60;55.80
69677;DHT22;56914;51.058;9.326;2023-04-03T02:09:49;6.60;55.80
69677;DHT22;56914;51.058;9.326;2023-04-03T02:10:52;6.60;55.90
69677;DHT22;56914;51.058;9.326;2023-04-03T02:11:55;6.60;56.00
69677;DHT22;56914;51.058;9.326;2023-04-03T02:12:58;6.50;55.90
69677;DHT22;56914;51.058;9.326;2023-04-03T02:14:00;6.50;55.90
69677;DHT22;56914;51.058;9.326;2023-04-03T02:15:04;6.50;55.90
69677;DHT22;56914;51.058;9.326;2023-04-03T02:16:07;6.50;55.90
69677;DHT22;56914;51.058;9.326;2023-04-03T02:17:12;6.60;55.90
69677;DHT22;56914;51.058;9.326;2023-04-03T02:18:14;6.60;55.80
69677;DHT22;56914;51.058;9.326;2023-04-03T02:19:19;6.60;55.80
69677;DHT22;56914;51.058;9.326;2023-04-03T02:20:21;6.50;55.70
69677;DHT22;56914;51.058;9.326;2023-04-03T02:21:25;6.50;55.70
69677;DHT22;56914;51.058;9.326;2023-04-03T02:22:27;6.60;56.10
69677;DHT22;56914;51.058;9.326;2023-04-03T02:23:30;6.50;56.30
69677;DHT22;56914;51.058;9.326;2023-04-03T02:24:32;6.50;56.10
69677;DHT22;56914;51.058;9.326;2023-04-03T02:25:36;6.50;56.10
69677;DHT22;56914;51.058;9.326;2023-04-03T02:26:40;6.50;56.10
69677;DHT22;56914;51.058;9.326;2023-04-03T02:27:43;6.50;56.00
69677;DHT22;56914;51.058;9.326;2023-04-03T02:28:45;6.50;55.90
69677;DHT22;56914;51.058;9.326;2023-04-03T02:29:48;6.50;55.80
69677;DHT22;56914;51.058;9.326;2023-04-03T02:30:50;6.50;55.70
69677;DHT22;56914;51.058;9.326;2023-04-03T02:31:53;6.50;55.70
69677;DHT22;56914;51.058;9.326;2023-04-03T02:32:56;6.40;55.50
69677;DHT22;56914;51.058;9.326;2023-04-03T02:33:59;6.40;55.70
69677;DHT22;56914;51.058;9.326;2023-04-03T02:35:03;6.40;56.30
69677;DHT22;56914;51.058;9.326;2023-04-03T02:36:07;6.30;56.30
69677;DHT22;56914;51.058;9.326;2023-04-03T02:37:10;6.30;56.30
69677;DHT22;56914;51.058;9.326;2023-04-03T02:38:13;6.30;56.20
69677;DHT22;56914;51.058;9.326;2023-04-03T02:39:15;6.30;56.20
69677;DHT22;56914;51.058;9.326;2023-04-03T02:40:18;6.30;56.40
69677;DHT22;56914;51.058;9.326;2023-04-03T02:41:21;6.30;56.60
69677;DHT22;56914;51.058;9.326;2023-04-03T02:42:24;6.20;56.70
69677;DHT22;56914;51.058;9.326;2023-04-03T02:43:26;6.20;56.70
69677;DHT22;56914;51.058;9.326;2023-04-03T02:44:29;6.20;56.70
69677;DHT22;56914;51.058;9.326;2023-04-03T02:45:32;6.20;56.80
69677;DHT22;56914;51.058;9.326;2023-04-03T02:46:35;6.20;56.80
69677;DHT22;56914;51.058;9.326;2023-04-03T02:47:37;6.20;56.90
69677;DHT22;56914;51.058;9.326;2023-04-03T02:48:40;6.20;56.80
69677;DHT22;56914;51.058;9.326;2023-04-03T02:49:42;6.20;57.20
69677;DHT22;56914;51.058;9.326;2023-04-03T02:50:49;6.10;57.10
69677;DHT22;56914;51.058;9.326;2023-04-03T02:51:51;6.20;57.20
69677;DHT22;56914;51.058;9.326;2023-04-03T02:52:54;6.20;57.10
69677;DHT22;56914;51.058;9.326;2023-04-03T02:53:57;6.10;57.00
69677;DHT22;56914;51.058;9.326;2023-04-03T02:55:00;6.10;57.30
69677;DHT22;56914;51.058;9.326;2023-04-03T02:56:02;6.10;57.30
69677;DHT22;56914;51.058;9.326;2023-04-03T02:57:05;6.10;57.50
69677;DHT22;56914;51.058;9.326;2023-04-03T02:58:10;6.10;57.60
69677;DHT22;56914;51.058;9.326;2023-04-03T02:59:13;6.10;57.50
69677;DHT22;56914;51.058;9.326;2023-04-03T03:00:16;6.00;57.40
69677;DHT22;56914;51.058;9.326;2023-04-03T03:01:19;6.00;57.40
69677;DHT22;56914;51.058;9.326;2023-04-03T03:02:22;6.00;57.50
69677;DHT22;56914;51.058;9.326;2023-04-03T03:03:25;6.00;57.60
69677;DHT22;56914;51.058;9.326;2023-04-03T03:04:27;6.00;57.70
69677;DHT22;56914;51.058;9.326;2023-04-03T03:05:31;6.00;57.80
69677;DHT22;56914;51.058;9.326;2023-04-03T03:06:35;6.00;58.00
69677;DHT22;56914;51.058;9.326;2023-04-03T03:07:38;6.00;58.50
69677;DHT22;56914;51.058;9.326;2023-04-03T03:09:04;5.90;59.00
69677;DHT22;56914;51.058;9.326;2023-04-03T03:10:09;5.90;59.10
69677;DHT22;56914;51.058;9.326;2023-04-03T03:11:11;5.90;59.20
69677;DHT22;56914;51.058;9.326;2023-04-03T03:12:15;5.90;59.30
69677;DHT22;56914;51.058;9.326;2023-04-03T03:13:18;5.90;59.50
69677;DHT22;56914;51.058;9.326;2023-04-03T03:14:20;5.90;59.40
69677;DHT22;56914;51.058;9.326;2023-04-03T03:15:23;5.90;59.40
69677;DHT22;56914;51.058;9.326;2023-04-03T03:16:25;5.90;59.50
69677;DHT22;56914;51.058;9.326;2023-04-03T03:17:29;5.90;59.60
69677;DHT22;56914;51.058;9.326;2023-04-03T03:18:31;5.80;60.40
69677;DHT22;56914;51.058;9.326;2023-04-03T03:19:34;5.80;59.60
69677;DHT22;56914;51.058;9.326;2023-04-03T03:20:37;5.80;60.00
69677;DHT22;56914;51.058;9.326;2023-04-03T03:21:41;5.80;60.10
69677;DHT22;56914;51.058;9.326;2023-04-03T03:22:44;5.80;60.10
69677;DHT22;56914;51.058;9.326;2023-04-03T03:23:46;5.80;60.10
69677;DHT22;56914;51.058;9.326;2023-04-03T03:24:50;5.70;60.10
69677;DHT22;56914;51.058;9.326;2023-04-03T03:25:56;5.70;60.10
69677;DHT22;56914;51.058;9.326;2023-04-03T03:27:00;5.70;60.10
69677;DHT22;56914;51.058;9.326;2023-04-03T03:28:03;5.70;60.20
69677;DHT22;56914;51.058;9.326;2023-04-03T03:29:05;5.70;60.20
69677;DHT22;56914;51.058;9.326;2023-04-03T03:30:09;5.70;60.20
69677;DHT22;56914;51.058;9.326;2023-04-03T03:31:12;5.70;60.20
69677;DHT22;56914;51.058;9.326;2023-04-03T03:32:15;5.70;60.20
69677;DHT22;56914;51.058;9.326;2023-04-03T03:33:18;5.60;60.50
69677;DHT22;56914;51.058;9.326;2023-04-03T03:34:21;5.60;60.60
69677;DHT22;56914;51.058;9.326;2023-04-03T03:35:24;5.60;60.60
69677;DHT22;56914;51.058;9.326;2023-04-03T03:36:27;5.60;60.50
69677;DHT22;56914;51.058;9.326;2023-04-03T03:37:31;5.60;60.50
69677;DHT22;56914;51.058;9.326;2023-04-03T03:38:33;5.60;60.50
69677;DHT22;56914;51.058;9.326;2023-04-03T03:39:37;5.60;61.00
69677;DHT22;56914;51.058;9.326;2023-04-03T03:40:39;5.60;60.60
69677;DHT22;56914;51.058;9.326;2023-04-03T03:41:42;5.60;60.50
69677;DHT22;56914;51.058;9.326;2023-04-03T03:42:44;5.60;60.50
69677;DHT22;56914;51.058;9.326;2023-04-03T03:43:47;5.70;60.60
69677;DHT22;56914;51.058;9.326;2023-04-03T03:44:49;5.70;60.50
69677;DHT22;56914;51.058;9.326;2023-04-03T03:45:54;5.70;60.30
69677;DHT22;56914;51.058;9.326;2023-04-03T03:46:56;5.70;60.40
69677;DHT22;56914;51.058;9.326;2023-04-03T03:48:00;5.70;61.30
69677;DHT22;56914;51.058;9.326;2023-04-03T03:49:02;5.70;60.60
69677;DHT22;56914;51.058;9.326;2023-04-03T03:50:07;5.70;60.70
69677;DHT22;56914;51.058;9.326;2023-04-03T03:51:09;5.70;60.60
69677;DHT22;56914;51.058;9.326;2023-04-03T03:52:12;5.70;60.60
69677;DHT22;56914;51.058;9.326;2023-04-03T03:53:16;5.70;60.60
69677;DHT22;56914;51.058;9.326;2023-04-03T03:54:19;5.70;60.80
69677;DHT22;56914;51.058;9.326;2023-04-03T03:55:22;5.60;60.80
69677;DHT22;56914;51.058;9.326;2023-04-03T03:56:25;5.60;60.60
69677;DHT22;56914;51.058;9.326;2023-04-03T03:57:28;5.70;60.60
69677;DHT22;56914;51.058;9.326;2023-04-03T03:58:30;5.70;60.60
69677;DHT22;56914;51.058;9.326;2023-04-03T03:59:34;5.60;61.00
69677;DHT22;56914;51.058;9.326;2023-04-03T04:00:36;5.60;60.60
69677;DHT22;56914;51.058;9.326;2023-04-03T04:01:39;5.60;60.60
69677;DHT22;56914;51.058;9.326;2023-04-03T04:02:42;5.70;60.60
69677;DHT22;56914;51.058;9.326;2023-04-03T04:03:45;5.60;60.50
69677;DHT22;56914;51.058;9.326;2023-04-03T04:04:49;5.60;60.60
69677;DHT22;56914;51.058;9.326;2023-04-03T04:05:51;5.60;61.10
69677;DHT22;56914;51.058;9.326;2023-04-03T04:06:55;5.70;60.50
69677;DHT22;56914;51.058;9.326;2023-04-03T04:07:57;5.60;60.50
69677;DHT22;56914;51.058;9.326;2023-04-03T04:09:01;5.70;60.60
69677;DHT22;56914;51.058;9.326;2023-04-03T04:10:04;5.60;60.60
69677;DHT22;56914;51.058;9.326;2023-04-03T04:11:08;5.60;60.60
69677;DHT22;56914;51.058;9.326;2023-04-03T04:12:10;5.60;60.60
69677;DHT22;56914;51.058;9.326;2023-04-03T04:13:14;5.60;60.50
69677;DHT22;56914;51.058;9.326;2023-04-03T04:14:16;5.60;60.90
69677;DHT22;56914;51.058;9.326;2023-04-03T04:15:19;5.60;61.10
69677;DHT22;56914;51.058;9.326;2023-04-03T04:16:23;5.50;60.90
69677;DHT22;56914;51.058;9.326;2023-04-03T04:17:26;5.50;61.10
69677;DHT22;56914;51.058;9.326;2023-04-03T04:18:28;5.50;61.00
69677;DHT22;56914;51.058;9.326;2023-04-03T04:19:32;5.50;60.90
69677;DHT22;56914;51.058;9.326;2023-04-03T04:20:35;5.50;60.90
69677;DHT22;56914;51.058;9.326;2023-04-03T04:21:39;5.50;61.00
69677;DHT22;56914;51.058;9.326;2023-04-03T04:22:41;5.50;61.40
69677;DHT22;56914;51.058;9.326;2023-04-03T04:23:44;5.40;61.50
69677;DHT22;56914;51.058;9.326;2023-04-03T04:24:48;5.40;61.60
69677;DHT22;56914;51.058;9.326;2023-04-03T04:25:51;5.30;61.60
69677;DHT22;56914;51.058;9.326;2023-04-03T04:26:54;5.40;61.70
69677;DHT22;56914;51.058;9.326;2023-04-03T04:27:57;5.40;61.60
69677;DHT22;56914;51.058;9.326;2023-04-03T04:29:00;5.40;61.70
69677;DHT22;56914;51.058;9.326;2023-04-03T04:30:04;5.30;61.70
69677;DHT22;56914;51.058;9.326;2023-04-03T04:31:08;5.30;61.80
69677;DHT22;56914;51.058;9.326;2023-04-03T04:32:10;5.30;61.70
69677;DHT22;56914;51.058;9.326;2023-04-03T04:33:13;5.30;61.50
69677;DHT22;56914;51.058;9.326;2023-04-03T04:34:16;5.40;61.40
69677;DHT22;56914;51.058;9.326;2023-04-03T04:35:19;5.40;61.30
69677;DHT22;56914;51.058;9.326;2023-04-03T04:36:22;5.40;61.30
69677;DHT22;56914;51.058;9.326;2023-04-03T04:37:25;5.40;61.30
69677;DHT22;56914;51.058;9.326;2023-04-03T04:38:28;5.40;61.30
69677;DHT22;56914;51.058;9.326;2023-04-03T04:39:31;5.40;61.20
69677;DHT22;56914;51.058;9.326;2023-04-03T04:40:34;5.40;61.20
69677;DHT22;56914;51.058;9.326;2023-04-03T04:41:39;5.40;61.20
69677;DHT22;56914;51.058;9.326;2023-04-03T04:42:41;5.40;61.20
69677;DHT22;56914;51.058;9.326;2023-04-03T04:43:45;5.40;61.10
69677;DHT22;56914;51.058;9.326;2023-04-03T04:44:47;5.40;61.20
69677;DHT22;56914;51.058;9.326;2023-04-03T04:46:00;5.40;61.30
69677;DHT22;56914;51.058;9.326;2023-04-03T04:47:02;5.40;61.40
69677;DHT22;56914;51.058;9.326;2023-04-03T04:48:06;5.30;61.30
69677;DHT22;56914;51.058;9.326;2023-04-03T04:49:09;5.30;61.40
69677;DHT22;56914;51.058;9.326;2023-04-03T04:50:11;5.30;61.40
69677;DHT22;56914;51.058;9.326;2023-04-03T04:51:15;5.30;61.40
69677;DHT22;56914;51.058;9.326;2023-04-03T04:52:18;5.30;61.40
69677;DHT22;56914;51.058;9.326;2023-04-03T04:53:21;5.20;61.50
69677;DHT22;56914;51.058;9.326;2023-04-03T04:54:24;5.30;61.70
69677;DHT22;56914;51.058;9.326;2023-04-03T04:55:27;5.20;61.70
69677;DHT22;56914;51.058;9.326;2023-04-03T04:56:31;5.20;61.80
69677;DHT22;56914;51.058;9.326;2023-04-03T04:57:33;5.20;61.80
69677;DHT22;56914;51.058;9.326;2023-04-03T04:58:37;5.20;61.80
69677;DHT22;56914;51.058;9.326;2023-04-03T04:59:39;5.20;61.90
69677;DHT22;56914;51.058;9.326;2023-04-03T05:00:43;5.20;61.90
69677;DHT22;56914;51.058;9.326;2023-04-03T05:01:45;5.20;62.70
69677;DHT22;56914;51.058;9.326;2023-04-03T05:02:48;5.20;62.40
69677;DHT22;56914;51.058;9.326;2023-04-03T05:03:51;5.10;62.40
69677;DHT22;56914;51.058;9.326;2023-04-03T05:04:54;5.10;62.50
69677;DHT22;56914;51.058;9.326;2023-04-03T05:05:57;5.10;62.70
69677;DHT22;56914;51.058;9.326;2023-04-03T05:06:59;5.10;62.80
69677;DHT22;56914;51.058;9.326;2023-04-03T05:08:03;5.10;62.90
69677;DHT22;56914;51.058;9.326;2023-04-03T05:09:05;5.00;63.00
69677;DHT22;56914;51.058;9.326;2023-04-03T05:10:09;5.00;63.00
69677;DHT22;56914;51.058;9.326;2023-04-03T05:11:13;5.00;63.00
69677;DHT22;56914;51.058;9.326;2023-04-03T05:12:17;5.00;62.80
69677;DHT22;56914;51.058;9.326;2023-04-03T05:13:20;5.00;62.80
69677;DHT22;56914;51.058;9.326;2023-04-03T05:14:23;5.00;62.70
69677;DHT22;56914;51.058;9.326;2023-04-03T05:15:26;5.00;62.80
69677;DHT22;56914;51.058;9.326;2023-04-03T05:16:29;5.00;62.70
69677;DHT22;56914;51.058;9.326;2023-04-03T05:17:32;5.00;62.70
69677;DHT22;56914;51.058;9.326;2023-04-03T05:18:35;5.10;62.60
69677;DHT22;56914;51.058;9.326;2023-04-03T05:19:37;5.00;62.70
69677;DHT22;56914;51.058;9.326;2023-04-03T05:20:41;4.90;62.70
69677;DHT22;56914;51.058;9.326;2023-04-03T05:21:45;4.90;62.90
69677;DHT22;56914;51.058;9.326;2023-04-03T05:22:48;5.00;62.90
69677;DHT22;56914;51.058;9.326;2023-04-03T05:23:51;4.90;62.90
69677;DHT22;56914;51.058;9.326;2023-04-03T05:24:53;4.90;63.00
69677;DHT22;56914;51.058;9.326;2023-04-03T05:25:56;4.90;63.10
69677;DHT22;56914;51.058;9.326;2023-04-03T05:26:59;4.90;63.30
69677;DHT22;56914;51.058;9.326;2023-04-03T05:28:03;4.80;63.30
69677;DHT22;56914;51.058;9.326;2023-04-03T05:29:06;4.80;63.30
69677;DHT22;56914;51.058;9.326;2023-04-03T05:30:09;4.80;63.30
69677;DHT22;56914;51.058;9.326;2023-04-03T05:31:13;4.90;63.50
69677;DHT22;56914;51.058;9.326;2023-04-03T05:32:15;4.90;63.50
69677;DHT22;56914;51.058;9.326;2023-04-03T05:33:18;4.90;63.30
69677;DHT22;56914;51.058;9.326;2023-04-03T05:34:21;4.90;63.50
69677;DHT22;56914;51.058;9.326;2023-04-03T05:35:25;4.90;63.40
69677;DHT22;56914;51.058;9.326;2023-04-03T05:36:27;4.90;63.20
69677;DHT22;56914;51.058;9.326;2023-04-03T05:37:30;4.90;63.30
69677;DHT22;56914;51.058;9.326;2023-04-03T05:38:33;4.90;63.60
69677;DHT22;56914;51.058;9.326;2023-04-03T05:39:36;4.90;63.20
69677;DHT22;56914;51.058;9.326;2023-04-03T05:40:40;4.90;63.20
69677;DHT22;56914;51.058;9.326;2023-04-03T05:41:43;4.90;63.30
69677;DHT22;56914;51.058;9.326;2023-04-03T05:42:48;4.90;63.40
69677;DHT22;56914;51.058;9.326;2023-04-03T05:43:59;4.90;63.40
69677;DHT22;56914;51.058;9.326;2023-04-03T05:45:05;4.90;63.50
69677;DHT22;56914;51.058;9.326;2023-04-03T05:46:23;4.90;63.60
69677;DHT22;56914;51.058;9.326;2023-04-03T05:47:30;4.90;63.50
69677;DHT22;56914;51.058;9.326;2023-04-03T05:48:46;4.90;63.50
69677;DHT22;56914;51.058;9.326;2023-04-03T05:49:58;4.90;63.60
69677;DHT22;56914;51.058;9.326;2023-04-03T05:51:03;4.90;63.60
69677;DHT22;56914;51.058;9.326;2023-04-03T05:52:05;4.90;63.70
69677;DHT22;56914;51.058;9.326;2023-04-03T05:53:16;4.90;63.70
69677;DHT22;56914;51.058;9.326;2023-04-03T05:54:24;5.00;63.70
69677;DHT22;56914;51.058;9.326;2023-04-03T05:55:28;5.00;63.60
69677;DHT22;56914;51.058;9.326;2023-04-03T05:56:32;5.00;63.60
69677;DHT22;56914;51.058;9.326;2023-04-03T05:57:35;5.10;63.70
69677;DHT22;56914;51.058;9.326;2023-04-03T05:58:42;5.10;63.60
69677;DHT22;56914;51.058;9.326;2023-04-03T05:59:47;5.20;63.40
69677;DHT22;56914;51.058;9.326;2023-04-03T06:00:49;5.20;63.30
69677;DHT22;56914;51.058;9.326;2023-04-03T06:01:53;5.20;63.20
69677;DHT22;56914;51.058;9.326;2023-04-03T06:02:56;5.20;63.00
69677;DHT22;56914;51.058;9.326;2023-04-03T06:03:59;5.20;63.10
69677;DHT22;56914;51.058;9.326;2023-04-03T06:05:03;5.20;63.20
69677;DHT22;56914;51.058;9.326;2023-04-03T06:06:06;5.20;63.30
69677;DHT22;56914;51.058;9.326;2023-04-03T06:07:13;5.20;63.20
69677;DHT22;56914;51.058;9.326;2023-04-03T06:08:17;5.30;63.00
69677;DHT22;56914;51.058;9.326;2023-04-03T06:09:22;5.30;63.00
69677;DHT22;56914;51.058;9.326;2023-04-03T06:10:24;5.30;62.80
69677;DHT22;56914;51.058;9.326;2023-04-03T06:11:28;5.30;62.60
69677;DHT22;56914;51.058;9.326;2023-04-03T06:12:32;5.30;62.80
69677;DHT22;56914;51.058;9.326;2023-04-03T06:13:34;5.30;62.80
69677;DHT22;56914;51.058;9.326;2023-04-03T06:14:38;5.30;62.80
69677;DHT22;56914;51.058;9.326;2023-04-03T06:15:41;5.30;62.80
69677;DHT22;56914;51.058;9.326;2023-04-03T06:16:45;5.30;62.60
69677;DHT22;56914;51.058;9.326;2023-04-03T06:17:47;5.30;62.70
69677;DHT22;56914;51.058;9.326;2023-04-03T06:18:51;5.40;62.50
69677;DHT22;56914;51.058;9.326;2023-04-03T06:19:53;5.40;62.50
69677;DHT22;56914;51.058;9.326;2023-04-03T06:20:57;5.40;62.60
69677;DHT22;56914;51.058;9.326;2023-04-03T06:22:02;5.50;62.50
69677;DHT22;56914;51.058;9.326;2023-04-03T06:23:04;5.50;62.50
69677;DHT22;56914;51.058;9.326;2023-04-03T06:24:13;5.60;62.30
69677;DHT22;56914;51.058;9.326;2023-04-03T06:25:17;5.50;62.30
69677;DHT22;56914;51.058;9.326;2023-04-03T06:26:20;5.50;62.30
69677;DHT22;56914;51.058;9.326;2023-04-03T06:27:22;5.50;62.20
69677;DHT22;56914;51.058;9.326;2023-04-03T06:28:26;5.50;62.10
69677;DHT22;56914;51.058;9.326;2023-04-03T06:29:29;5.50;62.00
69677;DHT22;56914;51.058;9.326;2023-04-03T06:30:32;5.50;61.90
69677;DHT22;56914;51.058;9.326;2023-04-03T06:31:36;5.50;62.00
69677;DHT22;56914;51.058;9.326;2023-04-03T06:32:39;5.50;62.10
69677;DHT22;56914;51.058;9.326;2023-04-03T06:33:43;5.50;62.10
69677;DHT22;56914;51.058;9.326;2023-04-03T06:34:45;5.60;62.30
69677;DHT22;56914;51.058;9.326;2023-04-03T06:35:49;5.60;61.90
69677;DHT22;56914;51.058;9.326;2023-04-03T06:36:52;5.60;62.00
69677;DHT22;56914;51.058;9.326;2023-04-03T06:37:54;5.70;62.10
69677;DHT22;56914;51.058;9.326;2023-04-03T06:38:58;5.70;61.80
69677;DHT22;56914;51.058;9.326;2023-04-03T06:40:01;5.70;61.80
69677;DHT22;56914;51.058;9.326;2023-04-03T06:41:05;5.80;61.90
69677;DHT22;56914;51.058;9.326;2023-04-03T06:42:08;5.90;61.80
69677;DHT22;56914;51.058;9.326;2023-04-03T06:43:11;5.80;61.40
69677;DHT22;56914;51.058;9.326;2023-04-03T06:44:13;5.80;61.20
69677;DHT22;56914;51.058;9.326;2023-04-03T06:45:17;5.90;61.40
69677;DHT22;56914;51.058;9.326;2023-04-03T06:46:22;5.90;61.30
69677;DHT22;56914;51.058;9.326;2023-04-03T06:47:26;5.90;61.30
69677;DHT22;56914;51.058;9.326;2023-04-03T06:48:29;6.00;61.10
69677;DHT22;56914;51.058;9.326;2023-04-03T06:49:33;6.00;61.10
69677;DHT22;56914;51.058;9.326;2023-04-03T06:50:35;6.00;61.40
69677;DHT22;56914;51.058;9.326;2023-04-03T06:51:38;6.00;61.00